Latest Weather Observations for Greenbank (Defence)

IDQ60801

Issued at 10:02 pm EST Friday 16 November 2018 (issued every 10 minutes, with the page automatically refreshed every 10 minutes)

About weather observations | Map of weather stations | Latest weather observations for QLD | Other Formats
Station Details ID: 140009 Name: GREENBANK (DEFENCE) Lat: -27.69 Lon: 152.99 Height: 41.46 m
Data from the previous 72 hours. | See also: Recent months for locations in Queensland
Date/Time
EST
Temp
°C
App
Temp
°C
Dew
Point
°C
Rel
Hum
%
Delta-T
°C
Wind Press
QNH
hPa
Press
MSL
hPa
Rain since
9am
mm
Dir  Spd
km/h
Gust
km/h
Spd
kts
Gust
kts
16/10:00pm 20.3 22.7 16.9 81 2.1 CALM 0 0 0 0 - - 0.0
16/09:30pm 20.6 22.9 16.8 79 2.3 CALM 0 0 0 0 - - 0.0
16/09:00pm 21.0 23.2 16.6 76 2.7 CALM 0 0 0 0 - - 0.0
16/08:30pm 21.9 23.8 16.6 72 3.2 ESE 2 6 1 3 - - 0.0
16/08:00pm 22.9 24.5 16.9 69 3.7 ENE 4 7 2 4 - - 0.0
16/07:30pm 23.3 24.5 16.8 67 4.0 NE 6 9 3 5 - - 0.0
16/07:00pm 23.8 24.7 16.6 64 4.4 NE 7 17 4 9 - - 0.0
16/06:30pm 24.3 24.7 16.3 61 4.9 NNE 9 17 5 9 - - 0.0
16/06:00pm 25.1 25.3 15.7 56 5.7 NE 9 17 5 9 - - 0.0
16/05:30pm 25.9 25.9 16.2 55 6.0 NE 11 26 6 14 - - 0.0
16/05:00pm 26.8 26.2 16.7 54 6.3 NNE 15 22 8 12 - - 0.0
16/04:30pm 28.3 27.9 17.2 51 7.0 NNE 15 24 8 13 - - 0.0
16/04:00pm 28.1 27.8 16.4 49 7.3 NE 13 26 7 14 - - 0.0
16/03:30pm 29.6 30.2 16.8 46 8.0 NE 9 17 5 9 - - 0.0
16/03:00pm 29.2 29.3 16.4 46 8.0 ENE 11 20 6 11 - - 0.0
16/02:30pm 30.0 29.9 16.1 43 8.7 NNE 11 22 6 12 - - 0.0
16/02:00pm 29.8 29.4 16.2 43 8.5 NNE 13 26 7 14 - - 0.0
16/01:30pm 28.8 28.6 15.7 45 8.1 NE 11 20 6 11 - - 0.0
16/01:00pm 30.1 30.4 16.1 42 8.7 NNE 9 22 5 12 - - 0.0
16/12:30pm 30.3 30.9 16.7 44 8.6 NNE 9 13 5 7 - - 0.0
16/12:00pm 29.5 30.3 16.3 45 8.2 NNE 7 15 4 8 - - 0.0
16/11:30am 28.5 29.4 16.1 47 7.7 NE 6 13 3 7 - - 0.0
16/11:00am 28.6 28.8 15.8 45 7.9 NE 9 15 5 8 - - 0.0
16/10:30am 27.7 28.6 16.0 49 7.2 ESE 6 13 3 7 - - 0.0
16/10:00am 27.9 28.8 16.5 50 7.1 E 7 13 4 7 - - 0.0
16/09:30am 26.8 28.7 15.8 51 6.7 CALM 0 4 0 2 - - 0.0
16/09:00am 26.3 27.9 16.8 56 5.9 NW 4 9 2 5 - - 0.0
16/08:30am 25.1 26.2 16.5 59 5.3 WNW 6 13 3 7 - - 0.0
16/08:00am 25.0 27.3 17.7 64 4.6 NNW 2 6 1 3 - - 0.0
16/07:30am 23.7 25.4 17.2 67 4.0 NE 4 6 2 3 - - 0.0
16/07:00am 22.6 24.2 17.9 75 2.9 SW 6 7 3 4 - - 0.0
16/06:30am 21.3 23.3 17.9 81 2.1 SW 4 7 2 4 - - 0.0
16/06:00am 19.1 21.5 17.1 88 1.2 CALM 0 0 0 0 - - 0.0
16/05:30am 16.5 18.5 16.0 97 0.3 CALM 0 2 0 1 - - 0.0
16/05:00am 16.3 18.2 15.7 96 0.4 CALM 0 0 0 0 - - 0.0
16/04:30am 16.2 18.1 15.7 97 0.3 CALM 0 0 0 0 - - 0.0
16/04:00am 16.0 17.7 15.2 95 0.5 CALM 0 0 0 0 - - 0.0
16/03:30am 16.4 18.2 15.6 95 0.5 CALM 0 0 0 0 - - 0.0
16/03:00am 16.6 18.4 15.6 94 0.6 CALM 0 0 0 0 - - 0.0
16/02:30am 17.0 19.0 16.0 94 0.6 CALM 0 0 0 0 - - 0.0
16/02:00am 17.4 19.4 16.1 92 0.8 CALM 0 0 0 0 - - 0.0
16/01:30am 18.1 20.3 16.4 90 1.0 CALM 0 0 0 0 - - 0.0
16/01:00am 18.7 21.1 16.9 89 1.1 CALM 0 0 0 0 - - 0.0
16/12:30am 19.2 21.6 17.0 87 1.3 CALM 0 0 0 0 - - 0.0
16/12:00am 19.7 22.1 16.9 84 1.7 CALM 0 0 0 0 - - 0.0
 
Date/Time
EST
Temp
°C
App
Temp
°C
Dew
Point
°C
Rel
Hum
%
Delta-T
°C
Wind Press
QNH
hPa
Press
MSL
hPa
Rain since
9am
mm
Dir  Spd
km/h
Gust
km/h
Spd
kts
Gust
kts
15/11:30pm 20.5 22.6 17.1 81 2.1 SSE 2 4 1 2 - - 0.0
15/11:00pm 21.1 22.9 17.3 79 2.3 SSE 4 6 2 3 - - 0.0
15/10:30pm 21.5 23.6 17.3 77 2.6 E 2 4 1 2 - - 0.0
15/10:00pm 22.3 24.5 17.4 74 3.0 E 2 6 1 3 - - 0.0
15/09:30pm 22.6 24.8 17.5 73 3.2 NE 2 6 1 3 - - 0.0
15/09:00pm 22.4 24.5 17.3 73 3.1 ENE 2 6 1 3 - - 0.0
15/08:30pm 22.4 24.5 17.1 72 3.3 ENE 2 4 1 2 - - 0.0
15/08:00pm 22.5 24.1 17.0 71 3.4 ENE 4 7 2 4 - - 0.0
15/07:30pm 23.2 24.5 17.2 69 3.7 NE 6 13 3 7 - - 0.0
15/07:00pm 23.6 24.8 17.3 67 3.9 NE 7 15 4 8 - - 0.0
15/06:30pm 24.1 25.0 17.6 67 4.1 NNE 9 19 5 10 - - 0.0
15/06:00pm 25.0 25.9 17.5 63 4.7 NE 9 19 5 10 - - 0.0
15/05:30pm 25.9 26.8 17.5 59 5.3 NE 9 20 5 11 - - 0.0
15/05:00pm 26.8 27.7 17.6 57 5.8 NE 9 19 5 10 - - 0.0
15/04:30pm 28.3 27.7 17.5 52 6.8 NNE 17 24 9 13 - - 0.0
15/04:00pm 28.8 28.8 17.3 49 7.3 NNE 13 20 7 11 - - 0.0
15/03:30pm 29.4 28.5 16.9 47 7.9 NNE 17 28 9 15 - - 0.0
15/03:00pm 30.1 29.3 17.2 46 8.2 NNE 17 30 9 16 - - 0.0
15/02:30pm 29.7 29.9 16.8 45 8.1 NNE 11 20 6 11 - - 0.0
15/02:00pm 30.4 30.6 15.7 41 9.1 N 9 13 5 7 - - 0.0
15/01:30pm 31.5 32.6 17.0 41 9.2 ENE 7 19 4 10 - - 0.0
15/01:00pm 30.7 31.5 17.4 45 8.5 NNE 9 20 5 11 - - 0.0
15/12:30pm 29.2 29.9 15.7 44 8.3 ENE 6 11 3 6 - - 0.0
15/12:00pm 30.6 31.6 17.7 46 8.2 ENE 9 22 5 12 - - 0.0
15/11:30am 28.6 29.7 17.2 50 7.2 N 7 15 4 8 - - 0.0
15/11:00am 27.7 28.6 16.0 49 7.2 NNW 6 11 3 6 - - 0.0
15/10:30am 26.8 28.3 16.7 54 6.3 SSW 4 9 2 5 - - 0.0
15/10:00am 26.6 27.9 16.2 52 6.4 SSE 4 7 2 4 - - 0.0
15/09:30am 26.7 28.5 17.5 57 5.8 WSW 4 9 2 5 - - 0.0
15/09:00am 25.6 27.2 17.0 59 5.3 NNW 4 7 2 4 - - 0.0
15/08:30am 25.2 27.0 18.4 66 4.3 NW 6 9 3 5 - - 0.0
15/08:00am 23.7 25.4 18.1 71 3.5 WNW 6 9 3 5 - - 0.0
15/07:30am 23.9 26.5 18.3 71 3.5 NE 2 6 1 3 - - 0.0
15/07:00am 21.8 24.5 18.6 82 2.0 SW 2 4 1 2 - - 0.0
15/06:30am 20.6 23.5 18.2 86 1.5 CALM 0 0 0 0 - - 0.0
15/06:00am 19.5 22.2 17.8 90 1.0 CALM 0 0 0 0 - - 0.0
15/05:30am 17.6 20.0 17.0 96 0.4 CALM 0 0 0 0 - - 0.0
15/05:00am 17.3 19.5 16.5 95 0.5 CALM 0 0 0 0 - - 0.0
15/04:30am 17.8 20.3 17.2 96 0.4 CALM 0 0 0 0 - - 0.0
15/04:00am 17.6 20.0 17.1 97 0.3 CALM 0 0 0 0 - - 0.0
15/03:30am 17.3 19.6 16.8 97 0.3 CALM 0 0 0 0 - - 0.0
15/03:00am 16.9 19.0 16.3 96 0.4 CALM 0 0 0 0 - - 0.0
15/02:30am 17.0 19.1 16.2 95 0.5 CALM 0 0 0 0 - - 0.0
15/02:00am 17.5 19.9 16.9 96 0.4 CALM 0 0 0 0 - - 0.0
15/01:30am 17.3 19.6 16.7 96 0.4 CALM 0 0 0 0 - - 0.0
15/01:00am 17.5 19.7 16.5 94 0.6 CALM 0 0 0 0 - - 0.0
15/12:30am 18.3 20.6 16.8 91 0.9 CALM 0 0 0 0 - - 0.0
15/12:00am 18.9 21.4 17.2 90 1.0 CALM 0 0 0 0 - - 0.0
 
Date/Time
EST
Temp
°C
App
Temp
°C
Dew
Point
°C
Rel
Hum
%
Delta-T
°C
Wind Press
QNH
hPa
Press
MSL
hPa
Rain since
9am
mm
Dir  Spd
km/h
Gust
km/h
Spd
kts
Gust
kts
14/11:30pm 19.6 22.2 17.6 88 1.2 CALM 0 0 0 0 - - 0.0
14/11:00pm 19.7 22.4 17.7 88 1.2 CALM 0 0 0 0 - - 0.0
14/10:30pm 19.9 22.5 17.5 86 1.5 CALM 0 2 0 1 - - 0.0
14/10:00pm 20.4 23.0 17.6 84 1.7 CALM 0 0 0 0 - - 0.0
14/09:30pm 21.0 23.2 17.4 80 2.2 NE 2 6 1 3 - - 0.0
14/09:00pm 22.1 24.2 18.1 78 2.5 NE 4 11 2 6 - - 0.0
14/08:30pm 22.3 24.4 18.1 77 2.6 NE 4 6 2 3 - - 0.0
14/08:00pm 22.5 24.1 17.8 75 2.9 NE 6 11 3 6 - - 0.0
14/07:30pm 22.7 24.2 17.6 73 3.2 NE 6 11 3 6 - - 0.0
14/07:00pm 23.0 24.6 17.9 73 3.2 NE 6 11 3 6 - - 0.0
14/06:30pm 23.5 24.5 16.8 66 4.1 NE 7 17 4 9 - - 0.0
14/06:00pm 24.2 24.8 16.7 63 4.6 NE 9 19 5 10 - - 0.0
14/05:30pm 25.2 25.0 16.6 59 5.3 NE 13 20 7 11 - - 0.0
14/05:00pm 25.6 26.7 17.0 59 5.3 NE 7 15 4 8 - - 0.0
14/04:30pm 26.4 26.9 16.6 55 6.1 NE 9 17 5 9 - - 0.0
14/04:00pm 26.8 27.5 16.1 52 6.6 NE 7 15 4 8 - - 0.0
14/03:30pm 27.8 28.0 15.8 48 7.4 N 9 19 5 10 - - 0.0
14/03:00pm 27.2 27.3 15.6 49 7.1 NE 9 19 5 10 - - 0.0
14/02:30pm 26.8 26.4 16.1 52 6.6 NNE 13 19 7 10 - - 0.0
14/02:00pm 27.5 28.0 16.5 51 6.8 NE 9 19 5 10 - - 0.0
14/01:30pm 26.9 27.0 16.5 53 6.4 NE 11 15 6 8 - - 0.0
14/01:00pm 27.9 28.5 16.8 50 6.9 E 9 13 5 7 - - 0.0
14/12:30pm 27.3 28.2 16.0 50 7.0 SSE 6 11 3 6 - - 0.0
14/12:00pm 27.7 28.5 14.7 45 7.9 N 4 9 2 5 - - 0.0
14/11:30am 27.7 28.3 15.7 48 7.4 NNE 7 19 4 10 - - 0.0
14/11:00am 26.8 27.6 15.8 51 6.7 ENE 6 9 3 5 - - 0.0
14/10:30am 27.0 27.7 16.0 51 6.8 NNE 7 13 4 7 - - 0.0
14/10:00am 26.0 27.0 15.4 52 6.4 S 4 6 2 3 - - 0.0
14/09:30am 25.9 26.7 15.9 54 6.1 NNE 6 11 3 6 - - 0.0
14/09:00am 25.1 26.2 16.5 59 5.3 SE 6 13 3 7 - - 0.0
14/08:30am 23.4 24.5 15.7 62 4.6 NNW 4 9 2 5 - - 0.0
14/08:00am 22.4 23.4 15.3 64 4.2 SSE 4 7 2 4 - - 0.0
14/07:30am 21.8 22.9 14.7 64 4.2 SSE 2 6 1 3 - - 0.0
14/07:00am 19.9 20.0 13.8 68 3.5 S 6 9 3 5 - - 0.0
14/06:30am 18.2 18.6 13.7 75 2.6 S 4 6 2 3 - - 0.0
14/06:00am 15.5 16.8 14.2 92 0.7 CALM 0 0 0 0 - - 0.0
14/05:30am 13.2 14.0 12.7 97 0.3 CALM 0 0 0 0 - - 0.0
14/05:00am 12.2 12.7 11.7 97 0.3 CALM 0 0 0 0 - - 0.0
14/04:30am 12.0 12.5 11.5 97 0.3 CALM 0 0 0 0 - - 0.0
14/04:00am 12.0 12.4 11.4 96 0.3 CALM 0 0 0 0 - - 0.0
14/03:30am 12.2 12.7 11.7 97 0.3 CALM 0 0 0 0 - - 0.0
14/03:00am 12.1 12.6 11.5 96 0.3 CALM 0 0 0 0 - - 0.0
14/02:30am 12.2 12.7 11.6 96 0.3 CALM 0 0 0 0 - - 0.0
14/02:00am 12.4 12.9 11.6 95 0.4 CALM 0 0 0 0 - - 0.0
14/01:30am 12.5 13.0 11.7 95 0.4 CALM 0 0 0 0 - - 0.0
14/01:00am 12.6 13.2 11.8 95 0.4 CALM 0 0 0 0 - - 0.0
14/12:30am 12.8 13.4 11.9 94 0.5 CALM 0 0 0 0 - - 0.0
14/12:00am 13.1 13.8 12.2 94 0.5 CALM 0 0 0 0 - - 0.0
 
Date/Time
EST
Temp
°C
App
Temp
°C
Dew
Point
°C
Rel
Hum
%
Delta-T
°C
Wind Press
QNH
hPa
Press
MSL
hPa
Rain since
9am
mm
Dir  Spd
km/h
Gust
km/h
Spd
kts
Gust
kts
13/11:30pm 13.3 14.0 12.2 93 0.6 CALM 0 0 0 0 - - 0.0
13/11:00pm 13.6 14.3 12.2 91 0.8 CALM 0 0 0 0 - - 0.0
13/10:30pm 14.0 14.8 12.4 90 0.9 CALM 0 0 0 0 - - 0.0

Other Formats:

Comma delimited format used in spreadsheet applications
http://www.bom.gov.au/fwo/IDQ60801/IDQ60801.94419.axf

JavaScript Object Notation format (JSON) in row-major order
http://www.bom.gov.au/fwo/IDQ60801/IDQ60801.94419.json